Time;durP1;ratioP1;P1;durP2;ratioP2;P2;SDS_P1;SDS_P2;PMS_P1;PMS_P2;Temp;Humidity;BMP_temperature;BMP_pressure;BME280_temperature;BME280_humidity;BME280_pressure;Samples;Min_cycle;Max_cycle;Signal;HPM_P1;HPM_P2
2021/12/26 00:01:42;;;;;;;22.52;11.38;;;10.00;99.90;;;;;;5229594;28;20021;-74
2021/12/26 00:04:14;;;;;;;24.42;11.05;;;9.90;99.90;;;;;;5229646;28;20021;-76
2021/12/26 00:06:45;;;;;;;25.73;11.98;;;9.90;99.90;;;;;;5229860;28;20021;-75
2021/12/26 00:09:16;;;;;;;24.27;11.82;;;9.90;99.90;;;;;;5229466;28;20078;-75
2021/12/26 00:11:47;;;;;;;22.98;11.90;;;9.70;99.90;;;;;;5229298;28;20041;-77
2021/12/26 00:14:30;;;;;;;22.58;11.30;;;9.60;99.90;;;;;;5229281;28;20056;-78
2021/12/26 00:17:10;;;;;;;24.42;11.68;;;9.60;99.90;;;;;;5229347;28;20065;-78
2021/12/26 00:19:45;;;;;;;23.42;12.68;;;9.70;99.90;;;;;;5229252;28;20032;-78
2021/12/26 00:22:21;;;;;;;19.23;11.45;;;9.70;99.90;;;;;;5229193;28;20055;-78
2021/12/26 00:24:55;;;;;;;26.02;12.23;;;9.70;99.90;;;;;;5229211;28;20020;-78
2021/12/26 00:27:39;;;;;;;28.50;11.88;;;9.50;99.90;;;;;;5229060;28;20419;-78
2021/12/26 00:30:22;;;;;;;21.48;12.45;;;9.60;99.90;;;;;;5228966;28;20056;-78
2021/12/26 00:32:57;;;;;;;21.00;12.05;;;9.70;99.90;;;;;;5228814;28;20104;-78
2021/12/26 00:35:28;;;;;;;24.55;12.88;;;9.50;99.90;;;;;;5228899;28;20021;-75
2021/12/26 00:38:00;;;;;;;20.38;12.45;;;9.50;99.90;;;;;;5228907;28;20029;-74
2021/12/26 00:40:32;;;;;;;20.63;11.68;;;9.50;99.90;;;;;;5228777;28;20098;-77
2021/12/26 00:43:03;;;;;;;21.58;11.68;;;9.60;99.90;;;;;;5228838;28;20045;-75
2021/12/26 00:45:34;;;;;;;22.20;12.18;;;9.60;99.90;;;;;;5228853;28;20017;-79
2021/12/26 00:48:07;;;;;;;20.23;12.07;;;9.60;99.90;;;;;;5228689;28;20060;-77
2021/12/26 00:50:40;;;;;;;25.13;11.70;;;9.60;99.90;;;;;;5228580;28;20021;-76
2021/12/26 00:53:11;;;;;;;20.88;11.50;;;9.60;99.90;;;;;;5228638;28;20561;-77
2021/12/26 00:55:42;;;;;;;19.73;10.20;;;9.70;99.90;;;;;;5228585;28;20060;-77
2021/12/26 00:58:13;;;;;;;23.88;12.00;;;9.70;99.90;;;;;;5227797;28;20103;-78
2021/12/26 01:00:46;;;;;;;20.00;10.27;;;9.60;99.90;;;;;;5228531;28;20029;-77
2021/12/26 01:03:18;;;;;;;19.05;11.73;;;9.70;99.90;;;;;;5228329;28;20033;-78
2021/12/26 01:05:55;;;;;;;24.63;11.82;;;9.70;99.90;;;;;;5228296;28;20480;-76
2021/12/26 01:08:30;;;;;;;21.98;11.93;;;9.60;99.90;;;;;;5228498;28;20060;-75
2021/12/26 01:11:06;;;;;;;24.83;12.57;;;9.40;99.90;;;;;;5228239;28;20021;-75
2021/12/26 01:13:38;;;;;;;25.67;11.48;;;9.40;99.90;;;;;;5228252;28;20025;-78
2021/12/26 01:16:12;;;;;;;25.75;12.98;;;9.60;99.90;;;;;;5227784;28;20075;-77
2021/12/26 01:18:51;;;;;;;25.05;12.50;;;9.50;99.90;;;;;;5228115;28;20567;-79
2021/12/26 01:21:25;;;;;;;26.90;13.65;;;9.40;99.90;;;;;;5228026;28;20100;-75
2021/12/26 01:23:59;;;;;;;23.88;13.80;;;9.30;99.90;;;;;;5228123;28;20452;-74
2021/12/26 01:26:31;;;;;;;25.98;12.90;;;9.20;99.90;;;;;;5227884;28;20028;-78
2021/12/26 01:29:04;;;;;;;25.92;12.48;;;9.40;99.90;;;;;;5227961;28;20020;-78
2021/12/26 01:31:34;;;;;;;21.80;12.43;;;9.40;99.90;;;;;;5227941;28;20021;-75
2021/12/26 01:34:06;;;;;;;22.42;13.15;;;9.50;99.90;;;;;;5227839;28;20049;-77
2021/12/26 01:36:37;;;;;;;21.55;11.98;;;9.30;99.90;;;;;;5226502;28;20043;-77
2021/12/26 01:39:09;;;;;;;25.95;12.73;;;9.30;99.90;;;;;;5227772;28;20033;-77
2021/12/26 01:41:42;;;;;;;25.40;12.85;;;9.30;99.90;;;;;;5226189;28;20067;-77
2021/12/26 01:44:15;;;;;;;22.00;12.38;;;9.20;99.90;;;;;;5227938;28;20021;-77
2021/12/26 01:46:49;;;;;;;21.00;11.25;;;9.30;99.90;;;;;;5227846;28;20082;-77
2021/12/26 01:49:23;;;;;;;27.10;12.40;;;9.40;99.90;;;;;;5227713;28;20505;-79
2021/12/26 01:51:57;;;;;;;20.65;11.13;;;9.50;99.90;;;;;;5227700;28;20021;-74
2021/12/26 01:54:46;;;;;;;21.88;11.63;;;9.50;99.90;;;;;;5227864;28;20104;-74
2021/12/26 01:57:18;;;;;;;27.13;11.63;;;9.30;99.90;;;;;;5227650;28;20033;-75
2021/12/26 01:59:49;;;;;;;25.67;12.60;;;9.40;99.90;;;;;;5227579;28;20096;-78
2021/12/26 02:02:21;;;;;;;25.77;11.93;;;9.30;99.90;;;;;;5227471;28;20108;-75
2021/12/26 02:04:52;;;;;;;26.85;12.27;;;9.50;99.90;;;;;;5227392;28;20032;-79
2021/12/26 02:07:23;;;;;;;20.02;11.43;;;9.50;99.90;;;;;;5227507;28;20029;-78
2021/12/26 02:09:54;;;;;;;24.15;12.10;;;9.50;99.90;;;;;;5234030;28;20021;-79
2021/12/26 02:12:25;;;;;;;30.75;11.93;;;9.60;99.90;;;;;;5234359;28;20383;-78
2021/12/26 02:14:56;;;;;;;25.92;11.85;;;9.50;99.90;;;;;;5234198;28;20064;-73
2021/12/26 02:17:28;;;;;;;21.13;11.13;;;9.50;99.90;;;;;;5234325;28;20041;-77
2021/12/26 02:20:18;;;;;;;20.38;10.38;;;9.60;99.90;;;;;;5234312;28;20021;-74
2021/12/26 02:22:56;;;;;;;18.30;10.73;;;9.60;99.90;;;;;;5234178;28;20075;-78
2021/12/26 02:28:26;;;;;;;20.60;9.73;;;9.70;99.90;;;;;;5240770;28;20392;-76
2021/12/26 02:30:58;;;;;;;16.40;9.48;;;9.60;99.90;;;;;;5234085;28;20024;-76
2021/12/26 02:33:28;;;;;;;20.98;8.95;;;9.80;99.90;;;;;;5234226;28;20025;-74
2021/12/26 02:36:00;;;;;;;20.13;9.85;;;9.90;99.90;;;;;;5233971;28;20036;-75
2021/12/26 02:38:32;;;;;;;18.13;9.40;;;9.80;99.90;;;;;;5233985;28;20017;-78
2021/12/26 02:41:04;;;;;;;15.68;8.70;;;9.60;99.90;;;;;;5233988;28;20028;-74
2021/12/26 02:43:36;;;;;;;19.02;9.30;;;9.60;99.90;;;;;;5232625;28;20033;-77
2021/12/26 02:46:07;;;;;;;15.48;9.27;;;9.90;99.90;;;;;;5234383;28;20161;-75
2021/12/26 02:48:39;;;;;;;16.27;8.65;;;9.80;99.90;;;;;;5233903;28;20055;-75
2021/12/26 02:51:10;;;;;;;14.65;8.05;;;9.70;99.90;;;;;;5233952;28;20033;-75
2021/12/26 02:53:41;;;;;;;17.15;8.63;;;9.90;99.90;;;;;;5233973;28;20021;-76
2021/12/26 02:56:12;;;;;;;16.25;8.55;;;9.80;99.90;;;;;;5233959;28;20115;-78
2021/12/26 02:58:43;;;;;;;18.70;9.20;;;10.00;99.90;;;;;;5233838;28;20104;-74
2021/12/26 03:01:24;;;;;;;14.25;8.85;;;10.00;99.90;;;;;;5233851;28;20025;-77
2021/12/26 03:03:55;;;;;;;19.92;9.30;;;10.10;99.90;;;;;;5233854;28;20028;-76
2021/12/26 03:06:37;;;;;;;18.23;8.25;;;10.00;99.90;;;;;;5233928;28;20032;-75
2021/12/26 03:09:08;;;;;;;17.58;9.98;;;10.00;99.90;;;;;;5233811;28;20025;-74
2021/12/26 03:11:39;;;;;;;17.05;8.85;;;10.00;99.90;;;;;;5233433;28;20091;-74
2021/12/26 03:14:10;;;;;;;16.25;9.02;;;10.00;99.90;;;;;;5232389;28;20476;-78
2021/12/26 03:16:49;;;;;;;16.45;8.55;;;10.10;99.90;;;;;;5232278;28;20045;-74
2021/12/26 03:19:20;;;;;;;16.80;8.43;;;10.00;99.90;;;;;;5232618;28;20353;-77
2021/12/26 03:21:51;;;;;;;13.77;8.38;;;10.10;99.90;;;;;;5230329;28;20017;-78
2021/12/26 03:24:22;;;;;;;17.67;9.75;;;10.10;99.90;;;;;;5230453;28;20426;-77
2021/12/26 03:27:02;;;;;;;14.20;7.70;;;10.40;99.90;;;;;;5229075;28;20108;-74
2021/12/26 03:29:33;;;;;;;19.77;8.82;;;10.30;99.90;;;;;;5228910;28;20017;-74
2021/12/26 03:32:05;;;;;;;14.35;8.40;;;10.30;99.90;;;;;;5230353;28;20040;-74
2021/12/26 03:34:44;;;;;;;16.85;7.13;;;10.20;99.90;;;;;;5229054;28;20025;-77
2021/12/26 03:37:16;;;;;;;17.92;8.63;;;10.30;99.90;;;;;;5230145;28;20465;-77
2021/12/26 03:39:46;;;;;;;19.98;9.18;;;10.30;99.90;;;;;;5229928;28;20036;-75
2021/12/26 03:42:21;;;;;;;23.42;8.77;;;10.20;99.90;;;;;;5229939;28;20456;-76
2021/12/26 03:44:52;;;;;;;16.10;8.82;;;10.30;99.90;;;;;;5230119;28;20033;-78
2021/12/26 03:47:24;;;;;;;18.60;8.73;;;10.10;99.90;;;;;;5229892;28;20031;-77
2021/12/26 03:49:55;;;;;;;15.70;8.10;;;10.10;99.90;;;;;;5229865;28;20017;-77
2021/12/26 03:52:26;;;;;;;12.93;9.05;;;10.20;99.90;;;;;;5228601;28;20021;-76
2021/12/26 03:54:57;;;;;;;16.95;8.93;;;10.40;99.90;;;;;;5229942;28;20017;-78
2021/12/26 03:57:27;;;;;;;17.02;8.52;;;10.30;99.90;;;;;;5229726;28;20064;-78
2021/12/26 03:59:58;;;;;;;17.55;9.25;;;10.30;99.90;;;;;;5229939;28;20021;-77
2021/12/26 04:02:29;;;;;;;19.75;9.25;;;10.20;99.90;;;;;;5229872;28;20417;-78
2021/12/26 04:05:00;;;;;;;21.42;9.77;;;10.20;99.90;;;;;;5228331;28;20017;-76
2021/12/26 04:07:30;;;;;;;18.67;8.55;;;10.10;99.90;;;;;;5229573;28;20033;-77
2021/12/26 04:10:02;;;;;;;17.23;9.27;;;10.10;99.90;;;;;;5229323;28;20025;-74
2021/12/26 04:12:35;;;;;;;15.25;8.40;;;10.30;99.90;;;;;;5228370;28;20040;-78
2021/12/26 04:15:09;;;;;;;23.35;9.52;;;10.20;99.90;;;;;;5229190;28;20492;-78
2021/12/26 04:17:42;;;;;;;20.63;9.75;;;10.30;99.90;;;;;;5229478;28;20384;-78
2021/12/26 04:20:13;;;;;;;17.95;9.55;;;10.20;99.90;;;;;;5229174;28;20342;-76
2021/12/26 04:22:44;;;;;;;21.73;8.98;;;10.30;99.90;;;;;;5229171;28;20040;-78
2021/12/26 04:25:15;;;;;;;19.63;9.80;;;10.40;99.90;;;;;;5229398;28;20048;-74
2021/12/26 04:27:46;;;;;;;19.45;9.15;;;10.30;99.90;;;;;;5229178;28;20029;-74
2021/12/26 04:30:19;;;;;;;17.42;9.93;;;10.30;99.90;;;;;;5229069;28;20029;-75
2021/12/26 04:32:50;;;;;;;21.27;10.30;;;10.30;99.90;;;;;;5227827;28;20025;-74
2021/12/26 04:35:22;;;;;;;19.15;10.23;;;10.30;99.90;;;;;;5229012;28;20503;-78
2021/12/26 04:37:53;;;;;;;19.80;10.15;;;10.30;99.90;;;;;;5228694;28;20040;-75
2021/12/26 04:40:24;;;;;;;19.08;10.02;;;10.40;99.90;;;;;;5228738;28;20017;-77
2021/12/26 04:42:55;;;;;;;22.15;10.27;;;10.40;99.90;;;;;;5228752;28;20048;-78
2021/12/26 04:45:26;;;;;;;16.45;10.00;;;10.30;99.90;;;;;;5228942;28;20036;-77
2021/12/26 04:48:01;;;;;;;22.92;11.02;;;10.40;99.90;;;;;;5228599;28;20036;-76
2021/12/26 04:50:31;;;;;;;19.05;11.13;;;10.40;99.90;;;;;;5228682;28;20079;-74
2021/12/26 04:53:02;;;;;;;20.33;10.55;;;10.40;99.90;;;;;;5228755;28;20453;-78
2021/12/26 04:55:33;;;;;;;21.35;11.07;;;10.30;99.90;;;;;;5228521;28;20342;-75
2021/12/26 04:58:04;;;;;;;22.40;10.98;;;10.30;99.90;;;;;;5228472;28;20075;-78
2021/12/26 05:00:35;;;;;;;19.52;10.85;;;10.20;99.90;;;;;;5228469;28;20017;-78
2021/12/26 05:03:08;;;;;;;23.33;12.07;;;10.10;99.90;;;;;;5228425;28;20051;-78
2021/12/26 05:05:39;;;;;;;28.20;12.45;;;10.20;99.90;;;;;;5228391;28;20017;-76
2021/12/26 05:08:11;;;;;;;24.58;12.35;;;10.20;99.90;;;;;;5228281;28;20491;-77
2021/12/26 05:10:42;;;;;;;23.55;12.23;;;10.10;99.90;;;;;;5228234;28;20020;-78
2021/12/26 05:13:13;;;;;;;23.60;13.18;;;10.00;99.90;;;;;;5228403;28;20040;-77
2021/12/26 05:15:44;;;;;;;21.08;12.48;;;10.20;99.90;;;;;;5228248;28;20041;-75
2021/12/26 05:18:15;;;;;;;22.73;12.90;;;10.00;99.90;;;;;;5228589;28;20484;-75
2021/12/26 05:20:46;;;;;;;21.98;12.15;;;10.00;99.90;;;;;;5228343;28;20036;-76
2021/12/26 05:23:17;;;;;;;25.10;13.13;;;10.00;99.90;;;;;;5228504;28;20500;-74
2021/12/26 05:25:48;;;;;;;25.63;12.10;;;10.00;99.90;;;;;;5228198;28;20037;-74
2021/12/26 05:28:19;;;;;;;23.65;12.60;;;10.20;99.90;;;;;;5228310;28;20092;-77
2021/12/26 05:30:50;;;;;;;24.55;12.55;;;10.10;99.90;;;;;;5228008;28;20035;-74
2021/12/26 05:33:21;;;;;;;21.95;11.85;;;10.20;99.90;;;;;;5228156;28;20021;-75
2021/12/26 05:35:52;;;;;;;19.73;11.57;;;10.20;99.90;;;;;;5227753;28;20040;-73
2021/12/26 05:38:23;;;;;;;21.80;11.20;;;10.20;99.90;;;;;;5226378;28;20372;-74
2021/12/26 05:40:55;;;;;;;19.23;11.15;;;10.20;99.90;;;;;;5227687;28;20021;-76
2021/12/26 05:43:26;;;;;;;25.60;11.95;;;10.20;99.90;;;;;;5227429;28;20090;-75
2021/12/26 05:45:57;;;;;;;24.00;12.75;;;10.10;99.90;;;;;;5227951;28;20404;-77
2021/12/26 05:48:27;;;;;;;25.15;12.40;;;10.20;99.90;;;;;;5227744;28;20047;-74
2021/12/26 05:50:58;;;;;;;21.70;10.65;;;10.30;99.90;;;;;;5227668;28;20040;-75
2021/12/26 05:53:29;;;;;;;20.75;11.77;;;10.30;99.90;;;;;;5226303;28;20024;-75
2021/12/26 05:56:00;;;;;;;20.25;10.13;;;10.30;99.90;;;;;;5227656;28;20472;-78
2021/12/26 05:58:31;;;;;;;23.27;10.40;;;10.40;99.90;;;;;;5227550;28;20033;-74
2021/12/26 06:01:02;;;;;;;20.10;10.68;;;10.20;99.90;;;;;;5227389;28;20056;-75
2021/12/26 06:03:33;;;;;;;22.35;11.02;;;10.30;99.90;;;;;;5227495;28;20020;-78
2021/12/26 06:06:04;;;;;;;22.13;11.30;;;10.30;99.90;;;;;;5227473;28;20104;-75
2021/12/26 06:08:35;;;;;;;20.75;11.15;;;10.30;99.90;;;;;;5227387;28;20013;-75
2021/12/26 06:11:06;;;;;;;22.38;10.38;;;10.20;99.90;;;;;;5227149;28;20071;-78
2021/12/26 06:13:37;;;;;;;25.40;11.93;;;10.30;99.90;;;;;;5232665;28;20365;-75
2021/12/26 06:16:08;;;;;;;21.15;10.38;;;10.40;99.90;;;;;;5227155;28;20496;-76
2021/12/26 06:18:38;;;;;;;23.92;11.48;;;10.40;99.90;;;;;;5227853;28;20025;-74
2021/12/26 06:21:09;;;;;;;20.63;10.55;;;10.40;99.90;;;;;;5227167;28;20064;-77
2021/12/26 06:23:40;;;;;;;21.02;11.50;;;10.40;99.90;;;;;;5226099;28;20044;-78
2021/12/26 06:26:11;;;;;;;22.33;10.43;;;10.40;99.90;;;;;;5227419;28;20075;-76
2021/12/26 06:28:41;;;;;;;23.33;9.35;;;10.50;99.90;;;;;;5227325;28;20469;-77
2021/12/26 06:31:12;;;;;;;16.55;10.05;;;10.70;99.90;;;;;;5225964;28;20024;-78
2021/12/26 06:33:46;;;;;;;17.48;9.55;;;10.70;99.90;;;;;;5227293;28;20035;-79
2021/12/26 06:36:17;;;;;;;17.88;9.73;;;10.80;99.90;;;;;;5227209;28;20043;-77
2021/12/26 06:38:48;;;;;;;18.92;9.43;;;10.90;99.90;;;;;;5227170;28;20097;-79
2021/12/26 06:41:19;;;;;;;20.55;9.32;;;11.00;99.90;;;;;;5226742;28;20021;-75
2021/12/26 06:43:50;;;;;;;15.57;7.78;;;11.10;99.90;;;;;;5239130;28;20110;-76
2021/12/26 06:46:21;;;;;;;24.90;9.68;;;11.30;99.90;;;;;;5247923;28;20025;-76
2021/12/26 06:48:52;;;;;;;23.10;8.52;;;11.30;99.90;;;;;;5247718;28;20369;-74
2021/12/26 06:51:23;;;;;;;17.60;8.38;;;11.40;99.90;;;;;;5247625;28;20029;-75
2021/12/26 06:53:54;;;;;;;16.92;8.93;;;11.40;99.90;;;;;;5247828;28;20029;-78
2021/12/26 06:56:25;;;;;;;27.65;9.05;;;11.50;99.90;;;;;;5250600;28;20064;-76
2021/12/26 06:58:56;;;;;;;16.88;8.05;;;11.60;99.90;;;;;;5251752;28;20039;-75
2021/12/26 07:01:27;;;;;;;19.38;8.10;;;11.70;99.90;;;;;;5251727;28;20013;-79
2021/12/26 07:03:58;;;;;;;23.20;8.25;;;11.80;99.90;;;;;;5250518;28;20115;-75
2021/12/26 07:06:29;;;;;;;18.75;9.60;;;11.80;99.90;;;;;;5251253;28;20610;-78
2021/12/26 07:08:59;;;;;;;16.42;9.40;;;11.90;99.90;;;;;;5251175;28;20009;-79
2021/12/26 07:11:30;;;;;;;21.05;9.13;;;11.90;99.90;;;;;;5251274;28;20063;-78
2021/12/26 07:14:01;;;;;;;21.15;10.20;;;12.00;99.90;;;;;;5251122;28;20027;-76
2021/12/26 07:16:32;;;;;;;16.60;8.60;;;12.00;99.90;;;;;;5251189;28;20124;-78
2021/12/26 07:19:03;;;;;;;20.45;9.68;;;12.20;99.90;;;;;;5251358;28;20021;-78
2021/12/26 07:21:34;;;;;;;18.45;8.38;;;12.10;99.90;;;;;;5251005;28;20025;-79
2021/12/26 07:24:05;;;;;;;16.77;9.18;;;12.30;99.90;;;;;;5251227;28;20017;-77
2021/12/26 07:26:36;;;;;;;17.50;7.88;;;12.40;99.90;;;;;;5251099;28;20025;-76
2021/12/26 07:29:07;;;;;;;16.95;7.95;;;12.40;99.90;;;;;;5251172;28;20025;-76
2021/12/26 07:31:38;;;;;;;13.98;8.10;;;12.40;99.90;;;;;;5250964;28;20078;-77
2021/12/26 07:34:09;;;;;;;15.18;7.75;;;12.40;99.90;;;;;;5250964;28;20121;-77
2021/12/26 07:36:40;;;;;;;17.00;7.72;;;12.70;99.90;;;;;;5250942;28;20111;-76
2021/12/26 07:39:11;;;;;;;14.40;7.35;;;12.80;99.90;;;;;;5250990;28;20107;-77
2021/12/26 07:41:42;;;;;;;18.30;7.30;;;13.00;99.90;;;;;;5250408;28;20154;-78
2021/12/26 07:44:12;;;;;;;15.15;7.18;;;13.00;99.90;;;;;;5249195;28;20028;-79
2021/12/26 07:46:43;;;;;;;12.57;7.13;;;12.90;99.90;;;;;;5249964;28;20535;-77
2021/12/26 07:49:14;;;;;;;14.25;7.40;;;12.80;99.90;;;;;;5245459;28;20025;-74
2021/12/26 07:51:45;;;;;;;13.45;7.00;;;13.00;99.90;;;;;;5250303;28;20111;-75
2021/12/26 07:54:17;;;;;;;16.77;7.22;;;12.80;99.90;;;;;;5250481;28;20028;-75
2021/12/26 07:56:48;;;;;;;16.55;7.30;;;12.90;99.90;;;;;;5250262;28;20741;-76
2021/12/26 07:59:19;;;;;;;17.52;6.47;;;12.90;99.90;;;;;;5250339;28;20025;-77
2021/12/26 08:01:50;;;;;;;19.42;7.07;;;13.10;99.90;;;;;;5250339;28;20105;-79
2021/12/26 08:04:21;;;;;;;13.95;7.35;;;13.20;99.90;;;;;;5250229;28;20078;-77
2021/12/26 08:06:53;;;;;;;12.90;6.15;;;13.10;99.90;;;;;;5250068;28;20024;-77
2021/12/26 08:09:24;;;;;;;17.58;6.93;;;13.10;99.90;;;;;;5250176;28;20033;-78
2021/12/26 08:11:55;;;;;;;13.85;6.15;;;13.10;99.90;;;;;;5249910;28;20040;-77
2021/12/26 08:14:26;;;;;;;11.73;6.03;;;13.10;99.90;;;;;;5249780;28;20464;-78
2021/12/26 08:16:56;;;;;;;12.43;6.32;;;13.10;99.90;;;;;;5249309;28;20110;-78
2021/12/26 08:19:27;;;;;;;15.13;6.25;;;13.10;99.90;;;;;;5249537;28;20414;-79
2021/12/26 08:21:58;;;;;;;14.32;6.40;;;13.10;99.90;;;;;;5249688;28;20020;-79
2021/12/26 08:24:29;;;;;;;18.10;6.97;;;13.10;99.90;;;;;;5249869;28;20016;-79
2021/12/26 08:27:00;;;;;;;17.65;6.72;;;13.10;99.90;;;;;;5250007;28;20103;-75
2021/12/26 08:29:31;;;;;;;13.07;5.97;;;13.20;99.90;;;;;;5249918;28;20050;-75
2021/12/26 08:32:02;;;;;;;12.48;5.65;;;13.20;99.90;;;;;;5243433;28;20128;-74
2021/12/26 08:34:32;;;;;;;14.73;5.75;;;13.20;99.90;;;;;;5231338;28;20021;-75
2021/12/26 08:37:04;;;;;;;14.20;5.90;;;13.50;99.90;;;;;;5244662;28;20085;-75
2021/12/26 08:39:38;;;;;;;15.30;6.10;;;13.70;99.90;;;;;;5235452;28;20033;-75
2021/12/26 08:42:12;;;;;;;12.98;5.10;;;13.60;99.90;;;;;;5230259;28;20369;-75
2021/12/26 08:44:42;;;;;;;11.85;5.03;;;13.60;99.90;;;;;;5228901;28;20028;-78
2021/12/26 08:47:13;;;;;;;14.05;5.82;;;13.60;99.90;;;;;;5228702;28;20384;-78
2021/12/26 08:49:44;;;;;;;11.52;5.72;;;13.60;99.90;;;;;;5228798;28;20104;-75
2021/12/26 08:52:15;;;;;;;12.32;5.82;;;13.60;99.90;;;;;;5229162;28;20100;-78
2021/12/26 08:54:46;;;;;;;13.70;5.47;;;13.50;99.90;;;;;;5228737;28;20025;-78
2021/12/26 08:57:17;;;;;;;17.83;5.50;;;13.60;99.90;;;;;;5228988;28;20037;-76
2021/12/26 08:59:48;;;;;;;14.48;5.30;;;13.60;99.90;;;;;;5228547;28;20389;-78
2021/12/26 09:02:19;;;;;;;15.15;4.90;;;13.50;99.90;;;;;;5228370;28;20032;-76
2021/12/26 09:04:50;;;;;;;12.27;4.70;;;13.60;99.90;;;;;;5228511;28;20538;-75
2021/12/26 09:07:22;;;;;;;14.95;4.97;;;13.70;99.90;;;;;;5228410;28;20032;-76
2021/12/26 09:09:53;;;;;;;13.07;4.53;;;13.80;99.90;;;;;;5228207;28;20551;-76
2021/12/26 09:12:24;;;;;;;11.85;4.90;;;13.80;99.90;;;;;;5228710;28;20033;-75
2021/12/26 09:14:55;;;;;;;12.98;4.60;;;13.90;99.90;;;;;;5227768;28;20033;-77
2021/12/26 09:17:26;;;;;;;11.63;4.60;;;14.10;99.90;;;;;;5227449;28;20562;-76
2021/12/26 09:19:57;;;;;;;12.30;4.30;;;14.30;99.90;;;;;;5227903;28;20036;-76
2021/12/26 09:22:27;;;;;;;7.10;4.15;;;14.20;99.90;;;;;;5228090;28;20017;-76
2021/12/26 09:24:59;;;;;;;10.45;4.95;;;14.10;99.90;;;;;;5228063;28;20031;-75
2021/12/26 09:27:30;;;;;;;11.55;5.28;;;14.00;99.90;;;;;;5228283;28;20071;-78
2021/12/26 09:30:00;;;;;;;11.35;4.47;;;14.10;99.90;;;;;;5227614;28;20457;-77
2021/12/26 09:32:31;;;;;;;13.02;5.53;;;14.00;99.90;;;;;;5227967;28;20025;-74
2021/12/26 09:35:04;;;;;;;11.98;4.82;;;14.00;99.90;;;;;;5227899;28;20041;-76
2021/12/26 09:37:35;;;;;;;9.85;4.55;;;14.10;99.90;;;;;;5227642;28;20029;-75
2021/12/26 09:40:06;;;;;;;10.52;4.18;;;14.20;99.90;;;;;;5227689;28;20040;-77
2021/12/26 09:42:37;;;;;;;8.90;3.83;;;14.20;99.90;;;;;;5227886;28;20036;-75
2021/12/26 09:45:09;;;;;;;16.33;4.78;;;14.20;99.90;;;;;;5227577;28;20021;-74
2021/12/26 09:47:42;;;;;;;6.68;3.80;;;14.50;99.90;;;;;;5227849;28;20094;-75
2021/12/26 09:50:13;;;;;;;8.68;3.92;;;14.40;99.90;;;;;;5227458;28;20024;-74
2021/12/26 09:52:47;;;;;;;14.55;4.55;;;14.30;99.90;;;;;;5227557;28;20021;-73
2021/12/26 09:55:18;;;;;;;17.25;7.43;;;14.10;99.90;;;;;;5227207;28;20115;-75
2021/12/26 09:57:48;;;;;;;8.07;3.95;;;14.40;99.90;;;;;;5245016;28;20163;-74
2021/12/26 10:00:32;;;;;;;13.10;3.83;;;14.30;99.90;;;;;;5247843;28;20023;-74
2021/12/26 10:03:23;;;;;;;14.07;4.70;;;14.50;99.90;;;;;;5236448;28;20066;-75
2021/12/26 10:05:57;;;;;;;;;;;14.40;99.90;;;;;;5261684;28;20494;-75
2021/12/26 10:08:30;;;;;;;12.02;5.15;;;14.50;99.90;;;;;;5235801;28;19959;-74
2021/12/26 10:11:16;;;;;;;11.63;3.97;;;14.50;99.90;;;;;;5235548;28;20028;-76
2021/12/26 10:13:51;;;;;;;10.52;4.53;;;14.50;99.90;;;;;;5248170;28;20025;-75
2021/12/26 10:16:25;;;;;;;10.80;4.25;;;14.50;99.90;;;;;;5247782;28;20131;-74
2021/12/26 10:18:57;;;;;;;8.57;3.50;;;14.30;99.90;;;;;;5247707;28;20070;-77
2021/12/26 10:21:37;;;;;;;11.05;3.95;;;14.20;99.90;;;;;;5245811;28;20025;-74
2021/12/26 10:24:18;;;;;;;9.70;3.78;;;14.30;99.90;;;;;;5248019;28;20020;-75
2021/12/26 10:27:00;;;;;;;10.25;4.15;;;14.30;99.90;;;;;;5246804;28;20492;-75
2021/12/26 10:29:44;;;;;;;8.52;4.10;;;14.20;99.90;;;;;;5229039;28;20042;-74
2021/12/26 10:32:26;;;;;;;11.73;3.67;;;14.40;99.90;;;;;;5250861;28;20021;-74
2021/12/26 10:35:06;;;;;;;7.82;3.83;;;14.40;99.90;;;;;;5252144;28;20028;-75
2021/12/26 10:37:41;;;;;;;13.17;3.17;;;14.50;99.90;;;;;;5252114;28;20043;-76
2021/12/26 10:40:32;;;;;;;9.73;3.15;;;14.70;99.90;;;;;;5251646;28;20029;-74
2021/12/26 10:43:03;;;;;;;11.30;3.88;;;14.80;99.90;;;;;;5252098;28;20039;-75
2021/12/26 10:45:34;;;;;;;10.65;3.00;;;14.90;99.90;;;;;;5251523;28;20029;-74
2021/12/26 10:48:07;;;;;;;16.13;6.15;;;15.00;99.90;;;;;;5241295;28;20017;-75
2021/12/26 10:50:41;;;;;;;7.53;3.63;;;15.00;99.90;;;;;;5230684;28;20033;-75
2021/12/26 10:53:14;;;;;;;7.38;2.60;;;15.10;99.90;;;;;;5230950;28;20132;-75
2021/12/26 10:55:51;;;;;;;7.47;2.50;;;15.20;99.90;;;;;;5231082;28;20017;-74
2021/12/26 10:58:24;;;;;;;4.22;2.33;;;15.00;99.90;;;;;;5230949;28;20211;-74
2021/12/26 11:00:57;;;;;;;8.02;2.35;;;15.20;99.90;;;;;;5231070;28;20083;-74
2021/12/26 11:03:30;;;;;;;9.75;2.28;;;14.90;99.90;;;;;;5230979;28;20358;-75
2021/12/26 11:06:10;;;;;;;6.88;2.60;;;15.10;99.90;;;;;;5231179;28;20025;-75
2021/12/26 11:08:42;;;;;;;9.30;2.03;;;15.10;99.90;;;;;;5230798;28;20028;-75
2021/12/26 11:11:19;;;;;;;7.65;2.55;;;15.10;99.90;;;;;;5230995;28;20029;-82
2021/12/26 11:14:01;;;;;;;6.07;2.22;;;15.30;99.90;;;;;;5231026;28;20035;-81
2021/12/26 11:16:39;;;;;;;11.50;3.22;;;15.20;99.90;;;;;;5230593;28;20045;-84
2021/12/26 11:19:10;;;;;;;6.60;2.65;;;15.20;99.90;;;;;;5230971;28;20056;-79
2021/12/26 11:21:42;;;;;;;8.90;2.30;;;15.20;99.90;;;;;;5230607;28;20060;-80
2021/12/26 11:24:13;;;;;;;12.77;3.08;;;15.20;99.90;;;;;;5230606;28;20024;-79
2021/12/26 11:26:45;;;;;;;5.70;2.22;;;15.30;99.90;;;;;;5230871;28;20035;-79
2021/12/26 11:29:16;;;;;;;6.32;2.50;;;15.40;99.90;;;;;;5229211;28;20486;-79
2021/12/26 11:31:50;;;;;;;10.82;3.00;;;15.30;99.90;;;;;;5229111;28;20029;-78
2021/12/26 11:34:21;;;;;;;9.23;3.05;;;15.40;99.90;;;;;;5230520;28;20040;-79
2021/12/26 11:36:52;;;;;;;9.32;3.17;;;15.30;99.90;;;;;;5230230;28;20033;-78
2021/12/26 11:39:23;;;;;;;7.72;3.42;;;15.40;99.90;;;;;;5230193;28;20086;-78
2021/12/26 11:42:17;;;;;;;9.60;4.35;;;15.20;99.90;;;;;;5229504;28;20029;-79
2021/12/26 11:45:07;;;;;;;13.43;3.85;;;15.40;99.90;;;;;;5230075;28;20095;-79
2021/12/26 11:47:58;;;;;;;9.32;2.80;;;15.40;99.90;;;;;;5228872;28;20028;-79
2021/12/26 11:51:01;;;;;;;8.13;3.00;;;15.40;99.90;;;;;;5228878;28;20481;-78
2021/12/26 11:53:43;;;;;;;7.82;2.30;;;15.50;99.90;;;;;;5229999;28;20071;-78
2021/12/26 11:56:41;;;;;;;10.70;2.97;;;15.50;99.90;;;;;;5230192;28;20041;-79
2021/12/26 11:59:12;;;;;;;7.38;2.30;;;15.50;99.90;;;;;;5230151;28;20388;-79
2021/12/26 12:01:47;;;;;;;5.57;2.45;;;15.60;99.90;;;;;;5229839;28;20020;-78
2021/12/26 12:04:20;;;;;;;7.68;2.42;;;15.60;99.90;;;;;;5229917;28;20025;-78
2021/12/26 12:06:55;;;;;;;4.47;1.90;;;15.50;99.90;;;;;;5229758;28;20022;-76
2021/12/26 12:09:41;;;;;;;5.75;2.45;;;15.60;99.90;;;;;;5229657;28;20033;-78
2021/12/26 12:12:14;;;;;;;8.18;2.72;;;15.60;99.90;;;;;;5230185;28;20040;-78
2021/12/26 12:14:47;;;;;;;5.05;3.10;;;15.70;99.90;;;;;;5229667;28;20017;-78
2021/12/26 12:17:22;;;;;;;7.78;2.33;;;15.70;99.90;;;;;;5229565;28;20033;-78
2021/12/26 12:20:17;;;;;;;6.85;2.88;;;15.60;99.90;;;;;;5229706;28;20024;-78
2021/12/26 12:23:03;;;;;;;6.82;2.50;;;15.60;99.90;;;;;;5229804;28;20076;-78
2021/12/26 12:25:35;;;;;;;9.00;2.40;;;15.70;99.90;;;;;;5229385;28;20017;-78
2021/12/26 12:28:15;;;;;;;10.00;3.03;;;15.60;99.90;;;;;;5229278;28;20025;-78
2021/12/26 12:30:49;;;;;;;8.13;2.97;;;15.50;99.90;;;;;;5229306;28;20024;-79
2021/12/26 12:33:22;;;;;;;7.18;2.75;;;15.60;99.90;;;;;;5228117;28;20083;-78
2021/12/26 12:36:09;;;;;;;5.95;2.33;;;15.50;99.90;;;;;;5229123;28;20029;-75
2021/12/26 12:38:46;;;;;;;4.50;2.33;;;15.40;99.90;;;;;;5229314;28;20060;-78
2021/12/26 12:41:29;;;;;;;7.65;2.70;;;15.40;99.90;;;;;;5229153;28;20385;-79
2021/12/26 12:44:02;;;;;;;6.20;2.42;;;15.40;99.90;;;;;;5229192;28;20036;-79
2021/12/26 12:46:56;;;;;;;7.93;3.22;;;15.50;99.90;;;;;;5229309;28;20366;-79
2021/12/26 12:50:02;;;;;;;5.05;1.77;;;15.40;99.90;;;;;;5229062;28;20053;-78
2021/12/26 12:52:47;;;;;;;6.18;2.42;;;15.40;99.90;;;;;;5237172;28;20392;-78
2021/12/26 12:55:38;;;;;;;6.47;2.50;;;15.30;99.90;;;;;;5228739;28;20021;-79
2021/12/26 12:58:23;;;;;;;7.05;2.28;;;15.30;99.90;;;;;;5228759;28;20036;-78
2021/12/26 13:00:53;;;;;;;4.30;2.35;;;15.30;99.90;;;;;;5228736;28;20017;-78
2021/12/26 13:03:25;;;;;;;9.98;2.28;;;15.20;99.90;;;;;;5228665;28;20075;-77
2021/12/26 13:05:56;;;;;;;9.82;2.17;;;15.20;99.90;;;;;;5228554;28;20025;-78
2021/12/26 13:08:27;;;;;;;6.40;2.20;;;15.40;99.90;;;;;;5228410;28;20544;-79
2021/12/26 13:10:58;;;;;;;7.60;2.30;;;15.30;99.90;;;;;;5228360;28;20037;-79
2021/12/26 13:13:30;;;;;;;5.72;2.40;;;15.40;99.90;;;;;;5228597;28;20025;-78